Adams, North Carolina
Current Conditions -  °F | °C
As of 10:15 PM on Monday 26 Jan 2015 (Local Time) from KTNB Reporting Station
Light Snow Light Snow  
Wind Chill:   Ceiling: 800
Heat Index: 24°   Visibility: 5mi
Dew Point: 23°   Wind: 28mph
Humidity: 94%   Direction: 300°WNW
Pressure: 29.69"   Gusts: 38mph
Location:  36.2085°N, 81.6605°W
Report Text: KTNB 270315Z AUTO 30024G33KT 5SM -SN OVC008 M04/M05 A2969 RMK AO2 T10421051
Loading
Personal Weather Stations






























Interactive Weather Map New forecast layout! Learn more

10-Day Weather Forecast

Advertisements
Track Severe Weather on mobile